sensor_id;sensor_type;location;lat;lon;timestamp;P1;durP1;ratioP1;P2;durP2;ratioP2
1382;SDS011;685;47.196;11.880;2023-05-09T00:02:02;21.80;;;18.17;;
1382;SDS011;685;47.196;11.880;2023-05-09T00:04:30;18.93;;;16.60;;
1382;SDS011;685;47.196;11.880;2023-05-09T00:06:58;20.40;;;17.23;;
1382;SDS011;685;47.196;11.880;2023-05-09T00:09:25;23.87;;;17.83;;
1382;SDS011;685;47.196;11.880;2023-05-09T00:11:53;24.30;;;20.67;;
1382;SDS011;685;47.196;11.880;2023-05-09T00:14:20;23.23;;;18.87;;
1382;SDS011;685;47.196;11.880;2023-05-09T00:16:48;23.40;;;17.33;;
1382;SDS011;685;47.196;11.880;2023-05-09T00:19:15;20.53;;;18.07;;
1382;SDS011;685;47.196;11.880;2023-05-09T00:21:42;20.90;;;17.87;;
1382;SDS011;685;47.196;11.880;2023-05-09T00:24:09;23.73;;;19.93;;
1382;SDS011;685;47.196;11.880;2023-05-09T00:26:36;21.60;;;18.03;;
1382;SDS011;685;47.196;11.880;2023-05-09T00:29:04;23.30;;;18.80;;
1382;SDS011;685;47.196;11.880;2023-05-09T00:31:31;21.70;;;17.67;;
1382;SDS011;685;47.196;11.880;2023-05-09T00:33:58;21.30;;;17.40;;
1382;SDS011;685;47.196;11.880;2023-05-09T00:36:25;23.10;;;18.83;;
1382;SDS011;685;47.196;11.880;2023-05-09T00:38:52;24.87;;;18.93;;
1382;SDS011;685;47.196;11.880;2023-05-09T00:41:19;23.40;;;19.37;;
1382;SDS011;685;47.196;11.880;2023-05-09T00:43:46;22.57;;;18.97;;
1382;SDS011;685;47.196;11.880;2023-05-09T00:46:14;20.10;;;17.73;;
1382;SDS011;685;47.196;11.880;2023-05-09T00:48:42;18.17;;;15.70;;
1382;SDS011;685;47.196;11.880;2023-05-09T00:51:10;19.00;;;17.00;;
1382;SDS011;685;47.196;11.880;2023-05-09T00:53:37;19.57;;;15.77;;
1382;SDS011;685;47.196;11.880;2023-05-09T00:56:04;17.63;;;15.13;;
1382;SDS011;685;47.196;11.880;2023-05-09T00:58:32;16.07;;;13.87;;
1382;SDS011;685;47.196;11.880;2023-05-09T01:00:59;15.37;;;13.03;;
1382;SDS011;685;47.196;11.880;2023-05-09T01:03:29;16.67;;;14.77;;
1382;SDS011;685;47.196;11.880;2023-05-09T01:05:57;14.67;;;11.93;;
1382;SDS011;685;47.196;11.880;2023-05-09T01:08:35;13.37;;;10.67;;
1382;SDS011;685;47.196;11.880;2023-05-09T01:11:10;11.40;;;10.20;;
1382;SDS011;685;47.196;11.880;2023-05-09T01:13:43;10.00;;;7.20;;
1382;SDS011;685;47.196;11.880;2023-05-09T01:16:31;9.17;;;7.67;;
1382;SDS011;685;47.196;11.880;2023-05-09T01:19:07;8.03;;;5.50;;
1382;SDS011;685;47.196;11.880;2023-05-09T01:21:47;9.43;;;6.93;;
1382;SDS011;685;47.196;11.880;2023-05-09T01:24:24;6.00;;;4.40;;
1382;SDS011;685;47.196;11.880;2023-05-09T01:27:20;6.37;;;4.60;;
1382;SDS011;685;47.196;11.880;2023-05-09T01:29:54;5.63;;;4.27;;
1382;SDS011;685;47.196;11.880;2023-05-09T01:32:23;7.00;;;4.20;;
1382;SDS011;685;47.196;11.880;2023-05-09T01:34:53;6.83;;;5.20;;
1382;SDS011;685;47.196;11.880;2023-05-09T01:37:23;6.70;;;6.00;;
1382;SDS011;685;47.196;11.880;2023-05-09T01:39:56;6.57;;;4.90;;
1382;SDS011;685;47.196;11.880;2023-05-09T01:42:26;7.47;;;6.73;;
1382;SDS011;685;47.196;11.880;2023-05-09T01:45:00;16.77;;;13.57;;
1382;SDS011;685;47.196;11.880;2023-05-09T01:47:28;18.40;;;13.80;;
1382;SDS011;685;47.196;11.880;2023-05-09T01:49:55;9.87;;;7.90;;
1382;SDS011;685;47.196;11.880;2023-05-09T01:52:22;7.80;;;6.07;;
1382;SDS011;685;47.196;11.880;2023-05-09T01:54:51;9.53;;;7.90;;
1382;SDS011;685;47.196;11.880;2023-05-09T01:57:19;10.13;;;8.13;;
1382;SDS011;685;47.196;11.880;2023-05-09T01:59:47;7.63;;;6.80;;
1382;SDS011;685;47.196;11.880;2023-05-09T02:02:17;4.90;;;4.07;;
1382;SDS011;685;47.196;11.880;2023-05-09T02:04:44;3.83;;;2.87;;
1382;SDS011;685;47.196;11.880;2023-05-09T02:07:13;2.90;;;2.47;;
1382;SDS011;685;47.196;11.880;2023-05-09T02:09:40;5.07;;;4.00;;
1382;SDS011;685;47.196;11.880;2023-05-09T02:12:07;4.00;;;3.20;;
1382;SDS011;685;47.196;11.880;2023-05-09T02:14:34;3.90;;;3.13;;
1382;SDS011;685;47.196;11.880;2023-05-09T02:17:01;4.10;;;3.80;;
1382;SDS011;685;47.196;11.880;2023-05-09T02:19:33;4.97;;;4.20;;
1382;SDS011;685;47.196;11.880;2023-05-09T02:22:01;4.17;;;3.43;;
1382;SDS011;685;47.196;11.880;2023-05-09T02:24:29;3.70;;;3.30;;
1382;SDS011;685;47.196;11.880;2023-05-09T02:26:58;3.13;;;2.83;;
1382;SDS011;685;47.196;11.880;2023-05-09T02:29:27;2.80;;;2.50;;
1382;SDS011;685;47.196;11.880;2023-05-09T02:32:02;4.50;;;3.20;;
1382;SDS011;685;47.196;11.880;2023-05-09T02:34:31;4.00;;;3.07;;
1382;SDS011;685;47.196;11.880;2023-05-09T02:37:00;3.97;;;3.60;;
1382;SDS011;685;47.196;11.880;2023-05-09T02:39:28;4.73;;;2.90;;
1382;SDS011;685;47.196;11.880;2023-05-09T02:41:55;4.17;;;2.83;;
1382;SDS011;685;47.196;11.880;2023-05-09T02:44:22;3.47;;;3.00;;
1382;SDS011;685;47.196;11.880;2023-05-09T02:46:49;6.00;;;3.37;;
1382;SDS011;685;47.196;11.880;2023-05-09T02:49:16;3.00;;;2.70;;
1382;SDS011;685;47.196;11.880;2023-05-09T02:51:44;3.80;;;3.10;;
1382;SDS011;685;47.196;11.880;2023-05-09T02:54:11;4.57;;;3.33;;
1382;SDS011;685;47.196;11.880;2023-05-09T02:56:38;2.83;;;2.50;;
1382;SDS011;685;47.196;11.880;2023-05-09T02:59:05;3.27;;;2.70;;
1382;SDS011;685;47.196;11.880;2023-05-09T03:01:32;2.93;;;2.20;;
1382;SDS011;685;47.196;11.880;2023-05-09T03:03:59;2.73;;;2.13;;
1382;SDS011;685;47.196;11.880;2023-05-09T03:06:25;3.20;;;2.77;;
1382;SDS011;685;47.196;11.880;2023-05-09T03:08:54;3.03;;;2.20;;
1382;SDS011;685;47.196;11.880;2023-05-09T03:11:21;3.13;;;2.83;;
1382;SDS011;685;47.196;11.880;2023-05-09T03:13:48;4.60;;;3.83;;
1382;SDS011;685;47.196;11.880;2023-05-09T03:16:16;4.97;;;4.17;;
1382;SDS011;685;47.196;11.880;2023-05-09T03:18:43;4.50;;;2.83;;
1382;SDS011;685;47.196;11.880;2023-05-09T03:21:10;3.30;;;3.00;;
1382;SDS011;685;47.196;11.880;2023-05-09T03:23:37;4.63;;;2.13;;
1382;SDS011;685;47.196;11.880;2023-05-09T03:26:06;2.57;;;2.10;;
1382;SDS011;685;47.196;11.880;2023-05-09T03:28:33;2.50;;;2.10;;
1382;SDS011;685;47.196;11.880;2023-05-09T03:30:59;3.20;;;1.93;;
1382;SDS011;685;47.196;11.880;2023-05-09T03:33:26;2.77;;;2.20;;
1382;SDS011;685;47.196;11.880;2023-05-09T03:35:53;4.00;;;2.13;;
1382;SDS011;685;47.196;11.880;2023-05-09T03:38:21;2.50;;;1.73;;
1382;SDS011;685;47.196;11.880;2023-05-09T03:40:48;3.00;;;2.00;;
1382;SDS011;685;47.196;11.880;2023-05-09T03:43:17;2.73;;;2.43;;
1382;SDS011;685;47.196;11.880;2023-05-09T03:45:44;2.40;;;2.10;;
1382;SDS011;685;47.196;11.880;2023-05-09T03:48:13;2.70;;;2.30;;
1382;SDS011;685;47.196;11.880;2023-05-09T03:50:40;3.33;;;3.03;;
1382;SDS011;685;47.196;11.880;2023-05-09T03:53:08;3.77;;;2.83;;
1382;SDS011;685;47.196;11.880;2023-05-09T03:55:35;3.90;;;3.47;;
1382;SDS011;685;47.196;11.880;2023-05-09T03:58:02;4.07;;;3.37;;
1382;SDS011;685;47.196;11.880;2023-05-09T04:00:30;4.40;;;3.23;;
1382;SDS011;685;47.196;11.880;2023-05-09T04:02:57;9.60;;;4.10;;
1382;SDS011;685;47.196;11.880;2023-05-09T04:05:24;6.90;;;5.50;;
1382;SDS011;685;47.196;11.880;2023-05-09T04:07:51;7.53;;;5.77;;
1382;SDS011;685;47.196;11.880;2023-05-09T04:10:18;6.90;;;6.20;;
1382;SDS011;685;47.196;11.880;2023-05-09T04:12:45;9.23;;;6.67;;
1382;SDS011;685;47.196;11.880;2023-05-09T04:15:12;8.50;;;6.73;;
1382;SDS011;685;47.196;11.880;2023-05-09T04:17:41;8.57;;;6.83;;
1382;SDS011;685;47.196;11.880;2023-05-09T04:20:08;7.83;;;6.03;;
1382;SDS011;685;47.196;11.880;2023-05-09T04:22:36;8.27;;;6.60;;
1382;SDS011;685;47.196;11.880;2023-05-09T04:25:03;9.20;;;4.90;;
1382;SDS011;685;47.196;11.880;2023-05-09T04:27:31;5.73;;;5.03;;
1382;SDS011;685;47.196;11.880;2023-05-09T04:29:58;6.20;;;4.80;;
1382;SDS011;685;47.196;11.880;2023-05-09T04:32:25;5.77;;;5.03;;
1382;SDS011;685;47.196;11.880;2023-05-09T04:34:53;8.07;;;6.27;;
1382;SDS011;685;47.196;11.880;2023-05-09T04:37:20;7.23;;;6.33;;
1382;SDS011;685;47.196;11.880;2023-05-09T04:39:50;8.13;;;7.33;;
1382;SDS011;685;47.196;11.880;2023-05-09T04:42:17;5.43;;;4.93;;
1382;SDS011;685;47.196;11.880;2023-05-09T04:44:45;6.10;;;5.50;;
1382;SDS011;685;47.196;11.880;2023-05-09T04:47:12;6.73;;;4.97;;
1382;SDS011;685;47.196;11.880;2023-05-09T04:49:39;5.53;;;4.97;;
1382;SDS011;685;47.196;11.880;2023-05-09T04:52:07;6.13;;;5.50;;
1382;SDS011;685;47.196;11.880;2023-05-09T04:54:34;6.00;;;5.07;;
1382;SDS011;685;47.196;11.880;2023-05-09T04:57:01;6.80;;;6.10;;
1382;SDS011;685;47.196;11.880;2023-05-09T04:59:28;6.87;;;5.90;;
1382;SDS011;685;47.196;11.880;2023-05-09T05:01:55;6.73;;;5.70;;
1382;SDS011;685;47.196;11.880;2023-05-09T05:04:22;7.50;;;5.20;;
1382;SDS011;685;47.196;11.880;2023-05-09T05:06:50;5.67;;;5.17;;
1382;SDS011;685;47.196;11.880;2023-05-09T05:09:18;7.20;;;5.57;;
1382;SDS011;685;47.196;11.880;2023-05-09T05:11:45;6.07;;;5.27;;
1382;SDS011;685;47.196;11.880;2023-05-09T05:14:12;7.60;;;6.13;;
1382;SDS011;685;47.196;11.880;2023-05-09T05:16:39;10.30;;;7.17;;
1382;SDS011;685;47.196;11.880;2023-05-09T05:19:06;6.13;;;5.53;;
1382;SDS011;685;47.196;11.880;2023-05-09T05:21:33;8.00;;;5.60;;
1382;SDS011;685;47.196;11.880;2023-05-09T05:23:59;6.93;;;6.13;;
1382;SDS011;685;47.196;11.880;2023-05-09T05:26:28;5.83;;;5.03;;
1382;SDS011;685;47.196;11.880;2023-05-09T05:28:55;6.73;;;5.60;;
1382;SDS011;685;47.196;11.880;2023-05-09T05:31:22;6.00;;;5.40;;
1382;SDS011;685;47.196;11.880;2023-05-09T05:33:48;6.50;;;5.20;;
1382;SDS011;685;47.196;11.880;2023-05-09T05:36:15;7.77;;;5.83;;
1382;SDS011;685;47.196;11.880;2023-05-09T05:38:42;5.60;;;5.00;;
1382;SDS011;685;47.196;11.880;2023-05-09T05:41:09;5.10;;;4.50;;
1382;SDS011;685;47.196;11.880;2023-05-09T05:43:37;7.83;;;5.30;;
1382;SDS011;685;47.196;11.880;2023-05-09T05:46:04;6.13;;;5.53;;
1382;SDS011;685;47.196;11.880;2023-05-09T05:48:31;5.97;;;5.37;;
1382;SDS011;685;47.196;11.880;2023-05-09T05:50:58;6.60;;;5.20;;
1382;SDS011;685;47.196;11.880;2023-05-09T05:53:25;5.90;;;5.13;;
1382;SDS011;685;47.196;11.880;2023-05-09T05:55:52;7.07;;;5.17;;
1382;SDS011;685;47.196;11.880;2023-05-09T05:58:19;7.10;;;5.80;;
1382;SDS011;685;47.196;11.880;2023-05-09T06:00:48;7.20;;;5.40;;
1382;SDS011;685;47.196;11.880;2023-05-09T06:03:17;5.93;;;5.33;;
1382;SDS011;685;47.196;11.880;2023-05-09T06:05:44;7.70;;;6.20;;
1382;SDS011;685;47.196;11.880;2023-05-09T06:08:12;6.63;;;6.00;;
1382;SDS011;685;47.196;11.880;2023-05-09T06:10:39;6.20;;;5.50;;
1382;SDS011;685;47.196;11.880;2023-05-09T06:13:06;5.60;;;5.00;;
1382;SDS011;685;47.196;11.880;2023-05-09T06:15:33;7.00;;;4.97;;
1382;SDS011;685;47.196;11.880;2023-05-09T06:18:02;5.13;;;4.33;;
1382;SDS011;685;47.196;11.880;2023-05-09T06:20:29;5.50;;;4.87;;
1382;SDS011;685;47.196;11.880;2023-05-09T06:22:56;8.90;;;4.93;;
1382;SDS011;685;47.196;11.880;2023-05-09T06:25:22;7.97;;;5.87;;
1382;SDS011;685;47.196;11.880;2023-05-09T06:27:49;8.13;;;5.50;;
1382;SDS011;685;47.196;11.880;2023-05-09T06:30:16;6.47;;;4.87;;
1382;SDS011;685;47.196;11.880;2023-05-09T06:32:43;6.30;;;4.93;;
1382;SDS011;685;47.196;11.880;2023-05-09T06:35:11;6.03;;;5.33;;
1382;SDS011;685;47.196;11.880;2023-05-09T06:37:39;5.93;;;5.27;;
1382;SDS011;685;47.196;11.880;2023-05-09T06:40:07;8.30;;;6.40;;
1382;SDS011;685;47.196;11.880;2023-05-09T06:42:34;7.43;;;5.80;;
1382;SDS011;685;47.196;11.880;2023-05-09T06:45:01;7.67;;;6.30;;
1382;SDS011;685;47.196;11.880;2023-05-09T06:47:28;6.70;;;4.97;;
1382;SDS011;685;47.196;11.880;2023-05-09T06:49:55;6.13;;;5.53;;
1382;SDS011;685;47.196;11.880;2023-05-09T06:52:23;5.70;;;4.93;;
1382;SDS011;685;47.196;11.880;2023-05-09T06:54:50;6.13;;;5.53;;
1382;SDS011;685;47.196;11.880;2023-05-09T06:57:17;8.73;;;6.53;;
1382;SDS011;685;47.196;11.880;2023-05-09T06:59:44;7.40;;;5.50;;
1382;SDS011;685;47.196;11.880;2023-05-09T07:02:11;7.03;;;6.33;;
1382;SDS011;685;47.196;11.880;2023-05-09T07:04:38;6.23;;;5.53;;
1382;SDS011;685;47.196;11.880;2023-05-09T07:07:04;6.43;;;5.73;;
1382;SDS011;685;47.196;11.880;2023-05-09T07:09:33;5.83;;;4.40;;
1382;SDS011;685;47.196;11.880;2023-05-09T07:12:00;5.87;;;5.30;;
1382;SDS011;685;47.196;11.880;2023-05-09T07:14:27;7.97;;;5.60;;
1382;SDS011;685;47.196;11.880;2023-05-09T07:16:53;8.37;;;6.33;;
1382;SDS011;685;47.196;11.880;2023-05-09T07:19:20;6.87;;;6.17;;
1382;SDS011;685;47.196;11.880;2023-05-09T07:21:47;8.63;;;5.70;;
1382;SDS011;685;47.196;11.880;2023-05-09T07:24:14;7.73;;;6.33;;
1382;SDS011;685;47.196;11.880;2023-05-09T07:26:42;7.90;;;5.97;;
1382;SDS011;685;47.196;11.880;2023-05-09T07:29:09;27.97;;;15.47;;
1382;SDS011;685;47.196;11.880;2023-05-09T07:31:36;9.00;;;6.80;;
1382;SDS011;685;47.196;11.880;2023-05-09T07:34:03;6.10;;;5.43;;
1382;SDS011;685;47.196;11.880;2023-05-09T07:36:30;4.90;;;4.40;;
1382;SDS011;685;47.196;11.880;2023-05-09T07:38:57;6.70;;;5.20;;
1382;SDS011;685;47.196;11.880;2023-05-09T07:41:24;7.00;;;4.97;;
1382;SDS011;685;47.196;11.880;2023-05-09T07:43:52;5.07;;;4.57;;
1382;SDS011;685;47.196;11.880;2023-05-09T07:46:19;5.70;;;5.10;;
1382;SDS011;685;47.196;11.880;2023-05-09T07:48:46;5.13;;;3.90;;
1382;SDS011;685;47.196;11.880;2023-05-09T07:51:13;5.20;;;4.60;;
1382;SDS011;685;47.196;11.880;2023-05-09T07:53:40;5.80;;;5.03;;
1382;SDS011;685;47.196;11.880;2023-05-09T07:56:07;4.40;;;3.10;;
1382;SDS011;685;47.196;11.880;2023-05-09T07:58:34;4.10;;;3.47;;
1382;SDS011;685;47.196;11.880;2023-05-09T08:01:02;4.47;;;3.90;;
1382;SDS011;685;47.196;11.880;2023-05-09T08:03:29;3.50;;;3.17;;
1382;SDS011;685;47.196;11.880;2023-05-09T08:05:56;5.17;;;4.50;;
1382;SDS011;685;47.196;11.880;2023-05-09T08:08:23;4.33;;;3.93;;
1382;SDS011;685;47.196;11.880;2023-05-09T08:10:51;4.63;;;3.83;;
1382;SDS011;685;47.196;11.880;2023-05-09T08:13:18;4.20;;;3.80;;
1382;SDS011;685;47.196;11.880;2023-05-09T08:15:46;5.77;;;3.57;;
1382;SDS011;685;47.196;11.880;2023-05-09T08:18:14;4.60;;;3.53;;
1382;SDS011;685;47.196;11.880;2023-05-09T08:20:41;4.23;;;3.83;;
1382;SDS011;685;47.196;11.880;2023-05-09T08:23:08;2.40;;;2.20;;
1382;SDS011;685;47.196;11.880;2023-05-09T08:25:35;4.43;;;2.33;;
1382;SDS011;685;47.196;11.880;2023-05-09T08:28:02;2.93;;;2.70;;
1382;SDS011;685;47.196;11.880;2023-05-09T08:30:29;3.00;;;2.63;;
1382;SDS011;685;47.196;11.880;2023-05-09T08:32:56;3.13;;;2.77;;
1382;SDS011;685;47.196;11.880;2023-05-09T08:35:24;3.90;;;3.33;;
1382;SDS011;685;47.196;11.880;2023-05-09T08:37:51;3.37;;;3.07;;
1382;SDS011;685;47.196;11.880;2023-05-09T08:40:18;3.97;;;3.57;;
1382;SDS011;685;47.196;11.880;2023-05-09T08:42:45;3.17;;;2.70;;
1382;SDS011;685;47.196;11.880;2023-05-09T08:45:13;3.10;;;2.80;;
1382;SDS011;685;47.196;11.880;2023-05-09T08:47:43;4.20;;;2.80;;
1382;SDS011;685;47.196;11.880;2023-05-09T08:50:11;3.57;;;2.20;;
1382;SDS011;685;47.196;11.880;2023-05-09T08:52:40;2.87;;;2.50;;
1382;SDS011;685;47.196;11.880;2023-05-09T08:55:08;2.40;;;2.10;;
1382;SDS011;685;47.196;11.880;2023-05-09T08:57:35;3.83;;;2.20;;
1382;SDS011;685;47.196;11.880;2023-05-09T09:00:02;2.80;;;2.43;;
1382;SDS011;685;47.196;11.880;2023-05-09T09:02:31;3.27;;;2.20;;
1382;SDS011;685;47.196;11.880;2023-05-09T09:04:58;2.40;;;1.80;;
1382;SDS011;685;47.196;11.880;2023-05-09T09:07:26;2.37;;;2.07;;
1382;SDS011;685;47.196;11.880;2023-05-09T09:09:55;2.17;;;1.73;;
1382;SDS011;685;47.196;11.880;2023-05-09T09:12:23;2.37;;;2.17;;
1382;SDS011;685;47.196;11.880;2023-05-09T09:14:52;6.07;;;2.13;;
1382;SDS011;685;47.196;11.880;2023-05-09T09:17:21;3.63;;;2.30;;
1382;SDS011;685;47.196;11.880;2023-05-09T09:19:53;3.07;;;2.60;;
1382;SDS011;685;47.196;11.880;2023-05-09T09:22:22;2.53;;;1.90;;
1382;SDS011;685;47.196;11.880;2023-05-09T09:24:50;1.60;;;1.30;;
1382;SDS011;685;47.196;11.880;2023-05-09T09:27:18;1.60;;;0.90;;
1382;SDS011;685;47.196;11.880;2023-05-09T09:29:45;2.07;;;1.10;;
1382;SDS011;685;47.196;11.880;2023-05-09T09:32:12;1.30;;;1.00;;
1382;SDS011;685;47.196;11.880;2023-05-09T09:34:39;1.50;;;1.10;;
1382;SDS011;685;47.196;11.880;2023-05-09T09:37:06;1.90;;;0.93;;
1382;SDS011;685;47.196;11.880;2023-05-09T09:39:33;3.47;;;1.40;;
1382;SDS011;685;47.196;11.880;2023-05-09T09:42:08;1.40;;;0.83;;
1382;SDS011;685;47.196;11.880;2023-05-09T09:44:37;3.33;;;0.70;;
1382;SDS011;685;47.196;11.880;2023-05-09T09:47:03;1.27;;;0.83;;
1382;SDS011;685;47.196;11.880;2023-05-09T09:49:35;1.40;;;0.90;;
1382;SDS011;685;47.196;11.880;2023-05-09T09:52:02;1.20;;;0.70;;
1382;SDS011;685;47.196;11.880;2023-05-09T09:54:29;1.20;;;0.90;;
1382;SDS011;685;47.196;11.880;2023-05-09T09:56:57;1.80;;;0.80;;
1382;SDS011;685;47.196;11.880;2023-05-09T09:59:25;1.40;;;0.80;;
1382;SDS011;685;47.196;11.880;2023-05-09T10:01:54;1.20;;;0.57;;
1382;SDS011;685;47.196;11.880;2023-05-09T10:04:26;1.50;;;0.57;;
1382;SDS011;685;47.196;11.880;2023-05-09T10:06:55;1.10;;;0.80;;
1382;SDS011;685;47.196;11.880;2023-05-09T10:09:24;1.10;;;0.70;;
1382;SDS011;685;47.196;11.880;2023-05-09T10:11:53;1.10;;;0.80;;
1382;SDS011;685;47.196;11.880;2023-05-09T10:14:21;1.63;;;0.90;;
1382;SDS011;685;47.196;11.880;2023-05-09T10:16:50;1.50;;;0.50;;
1382;SDS011;685;47.196;11.880;2023-05-09T10:19:21;1.27;;;0.80;;
1382;SDS011;685;47.196;11.880;2023-05-09T10:21:51;1.47;;;1.17;;
1382;SDS011;685;47.196;11.880;2023-05-09T10:24:20;1.30;;;0.80;;
1382;SDS011;685;47.196;11.880;2023-05-09T10:26:55;1.53;;;1.30;;
1382;SDS011;685;47.196;11.880;2023-05-09T10:29:28;2.20;;;0.90;;
1382;SDS011;685;47.196;11.880;2023-05-09T10:32:01;1.37;;;0.80;;
1382;SDS011;685;47.196;11.880;2023-05-09T10:34:39;1.50;;;0.80;;
1382;SDS011;685;47.196;11.880;2023-05-09T10:37:09;1.87;;;0.63;;
1382;SDS011;685;47.196;11.880;2023-05-09T10:39:36;1.10;;;0.60;;
1382;SDS011;685;47.196;11.880;2023-05-09T10:42:04;1.47;;;0.80;;
1382;SDS011;685;47.196;11.880;2023-05-09T10:44:33;1.10;;;0.60;;
1382;SDS011;685;47.196;11.880;2023-05-09T10:47:00;1.03;;;0.50;;
1382;SDS011;685;47.196;11.880;2023-05-09T10:49:27;1.10;;;0.70;;
1382;SDS011;685;47.196;11.880;2023-05-09T10:51:56;1.00;;;0.60;;
1382;SDS011;685;47.196;11.880;2023-05-09T10:54:27;1.00;;;0.50;;
1382;SDS011;685;47.196;11.880;2023-05-09T10:56:57;1.00;;;0.47;;
1382;SDS011;685;47.196;11.880;2023-05-09T10:59:31;1.30;;;0.60;;
1382;SDS011;685;47.196;11.880;2023-05-09T11:01:59;1.93;;;0.70;;
1382;SDS011;685;47.196;11.880;2023-05-09T11:04:28;1.60;;;1.00;;
1382;SDS011;685;47.196;11.880;2023-05-09T11:06:57;1.40;;;0.73;;
1382;SDS011;685;47.196;11.880;2023-05-09T11:09:29;2.80;;;0.87;;
1382;SDS011;685;47.196;11.880;2023-05-09T11:12:08;1.40;;;0.83;;
1382;SDS011;685;47.196;11.880;2023-05-09T11:14:37;1.63;;;0.73;;
1382;SDS011;685;47.196;11.880;2023-05-09T11:17:09;3.40;;;1.13;;
1382;SDS011;685;47.196;11.880;2023-05-09T11:19:37;2.33;;;1.70;;
1382;SDS011;685;47.196;11.880;2023-05-09T11:22:26;4.10;;;1.03;;
1382;SDS011;685;47.196;11.880;2023-05-09T11:25:04;1.30;;;0.90;;
1382;SDS011;685;47.196;11.880;2023-05-09T11:27:36;1.90;;;1.40;;
1382;SDS011;685;47.196;11.880;2023-05-09T11:30:06;1.87;;;0.80;;
1382;SDS011;685;47.196;11.880;2023-05-09T11:32:39;1.60;;;1.00;;
1382;SDS011;685;47.196;11.880;2023-05-09T11:35:08;2.17;;;0.97;;
1382;SDS011;685;47.196;11.880;2023-05-09T11:37:41;1.30;;;0.90;;
1382;SDS011;685;47.196;11.880;2023-05-09T11:40:12;1.40;;;0.73;;
1382;SDS011;685;47.196;11.880;2023-05-09T11:42:41;1.20;;;0.70;;
1382;SDS011;685;47.196;11.880;2023-05-09T11:45:10;1.73;;;0.80;;
1382;SDS011;685;47.196;11.880;2023-05-09T11:47:38;1.47;;;0.90;;
1382;SDS011;685;47.196;11.880;2023-05-09T11:50:06;1.13;;;0.60;;
1382;SDS011;685;47.196;11.880;2023-05-09T11:52:34;1.23;;;0.87;;
1382;SDS011;685;47.196;11.880;2023-05-09T11:55:04;3.80;;;1.20;;
1382;SDS011;685;47.196;11.880;2023-05-09T11:57:32;1.57;;;0.70;;
1382;SDS011;685;47.196;11.880;2023-05-09T12:00:00;2.20;;;0.60;;
1382;SDS011;685;47.196;11.880;2023-05-09T12:02:29;1.27;;;0.70;;
1382;SDS011;685;47.196;11.880;2023-05-09T12:04:56;1.63;;;0.77;;
1382;SDS011;685;47.196;11.880;2023-05-09T12:07:33;1.33;;;0.60;;
1382;SDS011;685;47.196;11.880;2023-05-09T12:10:00;1.00;;;0.50;;
1382;SDS011;685;47.196;11.880;2023-05-09T12:12:33;1.17;;;0.60;;
1382;SDS011;685;47.196;11.880;2023-05-09T12:15:01;1.67;;;0.77;;
1382;SDS011;685;47.196;11.880;2023-05-09T12:17:29;1.33;;;0.77;;
1382;SDS011;685;47.196;11.880;2023-05-09T12:19:57;1.40;;;0.70;;
1382;SDS011;685;47.196;11.880;2023-05-09T12:22:25;1.70;;;0.60;;
1382;SDS011;685;47.196;11.880;2023-05-09T12:24:54;1.00;;;0.50;;
1382;SDS011;685;47.196;11.880;2023-05-09T12:27:21;2.40;;;0.80;;
1382;SDS011;685;47.196;11.880;2023-05-09T12:29:51;1.97;;;0.60;;
1382;SDS011;685;47.196;11.880;2023-05-09T12:32:18;1.83;;;1.13;;
1382;SDS011;685;47.196;11.880;2023-05-09T12:34:45;1.20;;;0.47;;
1382;SDS011;685;47.196;11.880;2023-05-09T12:37:13;1.07;;;0.63;;
1382;SDS011;685;47.196;11.880;2023-05-09T12:39:41;1.40;;;0.60;;
1382;SDS011;685;47.196;11.880;2023-05-09T12:42:12;1.37;;;0.80;;
1382;SDS011;685;47.196;11.880;2023-05-09T12:44:39;2.93;;;0.80;;
1382;SDS011;685;47.196;11.880;2023-05-09T12:47:14;1.43;;;0.97;;
1382;SDS011;685;47.196;11.880;2023-05-09T12:49:41;1.30;;;0.60;;
1382;SDS011;685;47.196;11.880;2023-05-09T12:52:15;1.00;;;0.57;;
1382;SDS011;685;47.196;11.880;2023-05-09T12:54:44;1.13;;;0.50;;
1382;SDS011;685;47.196;11.880;2023-05-09T12:57:19;1.40;;;0.57;;
1382;SDS011;685;47.196;11.880;2023-05-09T12:59:46;1.00;;;0.47;;
1382;SDS011;685;47.196;11.880;2023-05-09T13:02:15;1.97;;;0.60;;
1382;SDS011;685;47.196;11.880;2023-05-09T13:04:43;1.10;;;0.50;;
1382;SDS011;685;47.196;11.880;2023-05-09T13:07:10;1.40;;;0.80;;
1382;SDS011;685;47.196;11.880;2023-05-09T13:09:43;1.40;;;0.70;;
1382;SDS011;685;47.196;11.880;2023-05-09T13:12:20;1.30;;;0.80;;
1382;SDS011;685;47.196;11.880;2023-05-09T13:14:48;1.33;;;0.83;;
1382;SDS011;685;47.196;11.880;2023-05-09T13:17:16;2.20;;;0.80;;
1382;SDS011;685;47.196;11.880;2023-05-09T13:19:43;1.40;;;0.60;;
1382;SDS011;685;47.196;11.880;2023-05-09T13:22:10;1.30;;;0.80;;
1382;SDS011;685;47.196;11.880;2023-05-09T13:24:37;1.40;;;0.60;;
1382;SDS011;685;47.196;11.880;2023-05-09T13:27:04;1.30;;;0.83;;
1382;SDS011;685;47.196;11.880;2023-05-09T13:29:31;2.23;;;0.70;;
1382;SDS011;685;47.196;11.880;2023-05-09T13:31:57;1.37;;;1.00;;
1382;SDS011;685;47.196;11.880;2023-05-09T13:34:26;2.00;;;0.80;;
1382;SDS011;685;47.196;11.880;2023-05-09T13:36:53;1.10;;;0.50;;
1382;SDS011;685;47.196;11.880;2023-05-09T13:39:19;1.27;;;0.73;;
1382;SDS011;685;47.196;11.880;2023-05-09T13:41:46;5.13;;;0.80;;
1382;SDS011;685;47.196;11.880;2023-05-09T13:44:15;1.43;;;0.60;;
1382;SDS011;685;47.196;11.880;2023-05-09T13:46:43;1.60;;;0.80;;
1382;SDS011;685;47.196;11.880;2023-05-09T13:49:10;1.10;;;0.60;;
1382;SDS011;685;47.196;11.880;2023-05-09T13:51:38;1.20;;;0.70;;
1382;SDS011;685;47.196;11.880;2023-05-09T13:54:05;1.37;;;0.50;;
1382;SDS011;685;47.196;11.880;2023-05-09T13:56:36;1.47;;;0.60;;
1382;SDS011;685;47.196;11.880;2023-05-09T13:59:04;1.17;;;0.73;;
1382;SDS011;685;47.196;11.880;2023-05-09T14:01:30;1.53;;;0.70;;
1382;SDS011;685;47.196;11.880;2023-05-09T14:03:58;1.83;;;0.80;;
1382;SDS011;685;47.196;11.880;2023-05-09T14:06:25;1.00;;;0.50;;
1382;SDS011;685;47.196;11.880;2023-05-09T14:08:54;1.10;;;0.60;;
1382;SDS011;685;47.196;11.880;2023-05-09T14:11:21;1.40;;;0.70;;
1382;SDS011;685;47.196;11.880;2023-05-09T14:13:49;1.13;;;0.63;;
1382;SDS011;685;47.196;11.880;2023-05-09T14:16:17;2.07;;;0.60;;
1382;SDS011;685;47.196;11.880;2023-05-09T14:18:44;1.50;;;1.00;;
1382;SDS011;685;47.196;11.880;2023-05-09T14:21:12;2.90;;;0.63;;
1382;SDS011;685;47.196;11.880;2023-05-09T14:23:39;1.10;;;0.60;;
1382;SDS011;685;47.196;11.880;2023-05-09T14:26:08;1.20;;;0.60;;
1382;SDS011;685;47.196;11.880;2023-05-09T14:28:35;1.40;;;0.50;;
1382;SDS011;685;47.196;11.880;2023-05-09T14:31:02;1.97;;;0.80;;
1382;SDS011;685;47.196;11.880;2023-05-09T14:33:29;1.13;;;0.60;;
1382;SDS011;685;47.196;11.880;2023-05-09T14:35:57;1.27;;;0.50;;
1382;SDS011;685;47.196;11.880;2023-05-09T14:38:26;1.70;;;0.53;;
1382;SDS011;685;47.196;11.880;2023-05-09T14:40:53;2.17;;;0.83;;
1382;SDS011;685;47.196;11.880;2023-05-09T14:43:22;2.23;;;0.77;;
1382;SDS011;685;47.196;11.880;2023-05-09T14:45:48;1.67;;;0.70;;
1382;SDS011;685;47.196;11.880;2023-05-09T14:48:16;1.47;;;0.97;;
1382;SDS011;685;47.196;11.880;2023-05-09T14:50:43;1.37;;;0.70;;
1382;SDS011;685;47.196;11.880;2023-05-09T14:53:10;1.50;;;0.70;;
1382;SDS011;685;47.196;11.880;2023-05-09T14:55:37;1.77;;;0.77;;
1382;SDS011;685;47.196;11.880;2023-05-09T14:58:04;1.33;;;0.70;;
1382;SDS011;685;47.196;11.880;2023-05-09T15:00:33;1.23;;;0.60;;
1382;SDS011;685;47.196;11.880;2023-05-09T15:03:00;2.67;;;0.80;;
1382;SDS011;685;47.196;11.880;2023-05-09T15:05:27;2.10;;;0.70;;
1382;SDS011;685;47.196;11.880;2023-05-09T15:07:54;2.30;;;0.97;;
1382;SDS011;685;47.196;11.880;2023-05-09T15:10:21;1.33;;;0.70;;
1382;SDS011;685;47.196;11.880;2023-05-09T15:12:48;1.93;;;0.60;;
1382;SDS011;685;47.196;11.880;2023-05-09T15:15:15;1.37;;;0.73;;
1382;SDS011;685;47.196;11.880;2023-05-09T15:17:45;5.43;;;0.93;;
1382;SDS011;685;47.196;11.880;2023-05-09T15:20:12;1.93;;;0.77;;